createdAt,value
2022-10-10T00:01:20.850Z,7.23
2022-10-10T00:03:47.822Z,7.14
2022-10-10T00:06:15.938Z,7.14
2022-10-10T00:08:42.837Z,7.11
2022-10-10T00:11:09.883Z,7.10
2022-10-10T00:13:36.703Z,7.01
2022-10-10T00:16:03.568Z,6.97
2022-10-10T00:18:31.071Z,6.89
2022-10-10T00:20:57.645Z,6.94
2022-10-10T00:23:24.539Z,7.01
2022-10-10T00:25:51.764Z,7.12
2022-10-10T00:28:18.558Z,7.13
2022-10-10T00:30:45.354Z,7.15
2022-10-10T00:33:11.982Z,7.10
2022-10-10T00:35:39.267Z,7.08
2022-10-10T00:38:05.814Z,7.08
2022-10-10T00:40:32.774Z,7.19
2022-10-10T00:42:59.714Z,7.31
2022-10-10T00:45:39.027Z,7.41
2022-10-10T00:48:35.255Z,7.47
2022-10-10T00:51:06.372Z,7.64
2022-10-10T00:53:37.929Z,7.74
2022-10-10T00:56:06.149Z,7.94
2022-10-10T00:58:34.520Z,8.05
2022-10-10T01:01:01.108Z,8.05
2022-10-10T01:03:27.811Z,8.03
2022-10-10T01:05:54.657Z,8.01
2022-10-10T01:08:21.950Z,8.00
2022-10-10T01:11:16.306Z,8.04
2022-10-10T01:13:54.612Z,8.09
2022-10-10T01:16:36.076Z,8.13
2022-10-10T01:19:14.437Z,8.10
2022-10-10T01:21:59.852Z,8.15
2022-10-10T01:24:45.493Z,8.32
2022-10-10T01:27:34.942Z,8.36
2022-10-10T01:30:23.636Z,8.49
2022-10-10T01:32:54.545Z,8.63
2022-10-10T01:35:34.018Z,8.85
2022-10-10T01:38:27.839Z,8.97
2022-10-10T01:41:03.079Z,9.06
2022-10-10T01:43:30.116Z,9.22
2022-10-10T01:45:56.923Z,9.35
2022-10-10T01:48:28.963Z,9.30
2022-10-10T01:51:04.652Z,9.31
2022-10-10T01:54:03.302Z,9.24
2022-10-10T01:56:38.834Z,9.31
2022-10-10T01:59:07.957Z,9.30
2022-10-10T02:02:12.231Z,9.41
2022-10-10T02:04:48.553Z,9.44
2022-10-10T02:07:23.833Z,9.52
2022-10-10T02:09:52.818Z,9.48
2022-10-10T02:12:22.120Z,9.43
2022-10-10T02:14:54.490Z,9.53
2022-10-10T02:17:24.432Z,9.53
2022-10-10T02:19:54.704Z,9.50
2022-10-10T02:22:23.702Z,9.46
2022-10-10T02:24:52.786Z,9.43
2022-10-10T02:27:35.035Z,9.38
2022-10-10T02:30:03.976Z,9.43
2022-10-10T02:32:44.501Z,9.45
2022-10-10T02:35:24.812Z,9.51
2022-10-10T02:37:52.994Z,9.42
2022-10-10T02:40:24.680Z,9.35
2022-10-10T02:42:53.408Z,9.19
2022-10-10T02:45:21.653Z,9.11
2022-10-10T02:47:48.166Z,8.96
2022-10-10T02:50:14.642Z,8.95
2022-10-10T02:52:41.304Z,8.88
2022-10-10T02:55:08.183Z,8.81
2022-10-10T02:57:34.729Z,8.74
2022-10-10T03:00:01.795Z,8.58
2022-10-10T03:02:28.319Z,8.49
2022-10-10T03:04:54.800Z,8.42
2022-10-10T03:07:21.315Z,8.37
2022-10-10T03:09:47.838Z,8.33
2022-10-10T03:12:14.338Z,8.34
2022-10-10T03:14:40.881Z,8.35
2022-10-10T03:17:07.507Z,8.30
2022-10-10T03:19:34.058Z,8.24
2022-10-10T03:22:00.678Z,8.20
2022-10-10T03:24:27.637Z,8.08
2022-10-10T03:26:54.346Z,7.87
2022-10-10T03:29:20.875Z,7.71
2022-10-10T03:31:47.454Z,7.53
2022-10-10T03:34:14.040Z,7.44
2022-10-10T03:36:40.586Z,7.33
2022-10-10T03:39:09.303Z,7.18
2022-10-10T03:41:36.536Z,7.11
2022-10-10T03:44:03.204Z,7.05
2022-10-10T03:46:29.777Z,6.90
2022-10-10T03:48:56.262Z,6.88
2022-10-10T03:51:23.211Z,6.90
2022-10-10T03:53:49.825Z,6.89
2022-10-10T03:56:16.423Z,6.84
2022-10-10T03:58:42.932Z,6.86
2022-10-10T04:01:09.657Z,6.91
2022-10-10T04:03:36.190Z,6.93
2022-10-10T04:06:02.756Z,7.00
2022-10-10T04:08:30.645Z,7.10
2022-10-10T04:10:57.506Z,7.10
2022-10-10T04:13:28.061Z,7.13
2022-10-10T04:15:56.174Z,7.14
2022-10-10T04:18:23.497Z,7.19
2022-10-10T04:20:50.070Z,7.25
2022-10-10T04:23:16.813Z,7.30
2022-10-10T04:25:44.245Z,7.36
2022-10-10T04:28:15.692Z,7.41
2022-10-10T04:30:42.712Z,7.49
2022-10-10T04:33:09.281Z,7.54
2022-10-10T04:35:37.237Z,7.59
2022-10-10T04:38:04.661Z,7.63
2022-10-10T04:40:31.186Z,7.57
2022-10-10T04:42:57.773Z,7.50
2022-10-10T04:45:27.834Z,7.47
2022-10-10T04:47:54.901Z,7.39
2022-10-10T04:50:22.864Z,7.35
2022-10-10T04:52:49.749Z,7.31
2022-10-10T04:55:16.733Z,7.30
2022-10-10T04:57:43.305Z,7.37
2022-10-10T05:00:10.523Z,7.31
2022-10-10T05:02:37.219Z,7.27
2022-10-10T05:05:04.484Z,7.26
2022-10-10T05:07:31.082Z,7.23
2022-10-10T05:09:58.099Z,7.21
2022-10-10T05:12:24.907Z,7.15
2022-10-10T05:14:51.381Z,7.08
2022-10-10T05:17:17.976Z,7.00
2022-10-10T05:19:44.549Z,6.91
2022-10-10T05:22:11.060Z,6.88
2022-10-10T05:24:37.590Z,6.83
2022-10-10T05:27:04.234Z,6.80
2022-10-10T05:29:30.753Z,6.79
2022-10-10T05:31:57.283Z,6.76
2022-10-10T05:34:23.799Z,6.76
2022-10-10T05:36:50.349Z,6.73
2022-10-10T05:39:16.888Z,6.65
2022-10-10T05:41:43.617Z,6.64
2022-10-10T05:44:10.195Z,6.62
2022-10-10T05:46:36.749Z,6.60
2022-10-10T05:49:03.534Z,6.55
2022-10-10T05:51:30.062Z,6.54
2022-10-10T05:53:57.472Z,6.51
2022-10-10T05:56:24.081Z,6.50
2022-10-10T05:58:51.625Z,6.46
2022-10-10T06:01:18.198Z,6.47
2022-10-10T06:03:44.736Z,6.45
2022-10-10T06:06:11.294Z,6.49
2022-10-10T06:08:37.768Z,6.49
2022-10-10T06:11:08.206Z,6.47
2022-10-10T06:13:35.159Z,6.54
2022-10-10T06:16:01.736Z,6.55
2022-10-10T06:18:28.301Z,6.57
2022-10-10T06:20:55.282Z,6.60
2022-10-10T06:23:21.874Z,6.66
2022-10-10T06:25:51.853Z,6.78
2022-10-10T06:28:18.517Z,6.84
2022-10-10T06:30:48.408Z,6.92
2022-10-10T06:33:16.127Z,7.03
2022-10-10T06:35:44.100Z,7.07
2022-10-10T06:38:11.380Z,7.16
2022-10-10T06:40:39.342Z,7.25
2022-10-10T06:43:11.839Z,7.27
2022-10-10T06:45:40.354Z,7.37
2022-10-10T06:48:07.628Z,7.58
2022-10-10T06:50:34.539Z,7.49
2022-10-10T06:53:02.525Z,7.55
2022-10-10T06:55:29.330Z,7.71
2022-10-10T06:57:56.132Z,7.92
2022-10-10T07:00:22.717Z,8.17
2022-10-10T07:02:49.585Z,8.53
2022-10-10T07:05:18.202Z,8.94
2022-10-10T07:07:45.838Z,9.42
2022-10-10T07:10:14.246Z,9.94
2022-10-10T07:12:44.834Z,10.51
2022-10-10T07:15:12.020Z,11.05
2022-10-10T07:17:38.778Z,11.50
2022-10-10T07:20:05.708Z,11.72
2022-10-10T07:22:32.308Z,11.86
2022-10-10T07:24:58.869Z,11.90
2022-10-10T07:27:25.522Z,12.16
2022-10-10T07:29:52.103Z,12.53
2022-10-10T07:32:18.695Z,12.84
2022-10-10T07:34:45.216Z,12.56
2022-10-10T07:37:11.699Z,13.18
2022-10-10T07:39:38.354Z,13.76
2022-10-10T07:42:04.995Z,14.30
2022-10-10T07:44:34.602Z,14.75
2022-10-10T07:47:01.497Z,15.16
2022-10-10T07:49:28.083Z,15.53
2022-10-10T07:51:58.702Z,15.83
2022-10-10T07:54:28.555Z,16.12
2022-10-10T07:56:55.229Z,16.42
2022-10-10T07:59:22.618Z,16.39
2022-10-10T08:01:49.269Z,16.50
2022-10-10T08:04:16.233Z,16.41
2022-10-10T08:06:42.872Z,16.57
2022-10-10T08:09:09.684Z,16.92
2022-10-10T08:11:36.355Z,16.94
2022-10-10T08:14:03.343Z,17.01
2022-10-10T08:16:29.953Z,17.02
2022-10-10T08:18:56.638Z,17.20
2022-10-10T08:21:23.648Z,17.07
2022-10-10T08:23:50.254Z,17.41
2022-10-10T08:26:20.051Z,17.74
2022-10-10T08:28:48.738Z,17.90
2022-10-10T08:31:18.765Z,17.96
2022-10-10T08:33:46.341Z,17.95
2022-10-10T08:36:22.085Z,17.92
2022-10-10T08:38:49.883Z,18.00
2022-10-10T08:41:37.777Z,18.53
2022-10-10T08:44:14.383Z,18.24
2022-10-10T08:46:52.334Z,18.09
2022-10-10T08:49:34.485Z,18.61
2022-10-10T08:52:18.890Z,19.03
2022-10-10T08:54:47.925Z,18.76
2022-10-10T08:57:24.896Z,18.47
2022-10-10T08:59:56.467Z,18.57
2022-10-10T09:02:53.075Z,18.29
2022-10-10T09:05:33.226Z,18.63
2022-10-10T09:08:13.986Z,18.90
2022-10-10T09:10:54.710Z,19.01
2022-10-10T09:13:34.146Z,19.07
2022-10-10T09:16:13.779Z,19.30
2022-10-10T09:18:59.762Z,19.02
2022-10-10T09:21:31.611Z,18.96
2022-10-10T09:24:09.954Z,19.38
2022-10-10T09:26:44.125Z,19.75
2022-10-10T09:29:27.232Z,20.07
2022-10-10T09:32:10.364Z,20.13
2022-10-10T09:34:45.623Z,19.80
2022-10-10T09:37:35.578Z,20.14
2022-10-10T09:40:13.344Z,20.33
2022-10-10T09:42:40.123Z,20.38
2022-10-10T09:45:20.005Z,20.49
2022-10-10T09:47:54.049Z,20.39
2022-10-10T09:50:21.420Z,20.12
2022-10-10T09:52:48.486Z,20.60
2022-10-10T09:55:33.882Z,20.56
2022-10-10T09:58:25.395Z,20.62
2022-10-10T10:00:53.845Z,20.68
2022-10-10T10:03:22.754Z,20.80
2022-10-10T10:06:01.392Z,21.54
2022-10-10T10:08:30.691Z,21.24
2022-10-10T10:10:58.589Z,21.47
2022-10-10T10:13:37.760Z,21.82
2022-10-10T10:16:09.003Z,21.82
2022-10-10T10:18:43.543Z,22.66
2022-10-10T10:21:23.553Z,22.35
2022-10-10T10:23:56.114Z,21.97
2022-10-10T10:26:43.830Z,22.04
2022-10-10T10:29:31.750Z,21.66
2022-10-10T10:32:12.876Z,21.96
2022-10-10T10:35:02.742Z,22.09
2022-10-10T10:37:47.313Z,22.08
2022-10-10T10:40:31.252Z,22.19
2022-10-10T10:43:19.514Z,22.43
2022-10-10T10:45:48.675Z,22.22
2022-10-10T10:48:24.060Z,22.32
2022-10-10T10:51:05.360Z,22.09
2022-10-10T10:53:59.929Z,22.31
2022-10-10T10:56:39.318Z,22.67
2022-10-10T11:00:16.508Z,22.94
2022-10-10T11:02:43.709Z,23.11
2022-10-10T11:05:40.537Z,23.49
2022-10-10T11:08:36.129Z,23.59
2022-10-10T11:11:40.086Z,22.84
2022-10-10T11:14:09.600Z,22.84
2022-10-10T11:16:48.283Z,23.24
2022-10-10T11:19:15.541Z,22.95
2022-10-10T11:21:49.947Z,23.48
2022-10-10T11:24:35.627Z,23.58
2022-10-10T11:27:09.986Z,23.13
2022-10-10T11:29:51.476Z,23.56
2022-10-10T11:32:26.739Z,22.99
2022-10-10T11:35:07.657Z,23.16
2022-10-10T11:37:40.223Z,23.05
2022-10-10T11:40:23.961Z,23.11
2022-10-10T11:42:56.595Z,22.80
2022-10-10T11:45:30.196Z,23.16
2022-10-10T11:48:22.840Z,23.19
2022-10-10T11:50:55.287Z,23.24
2022-10-10T11:53:37.819Z,23.36
2022-10-10T11:56:39.917Z,22.99
2022-10-10T11:59:24.243Z,23.13
2022-10-10T12:01:55.122Z,23.44
2022-10-10T12:04:22.915Z,23.49
2022-10-10T12:07:14.168Z,23.27
2022-10-10T12:09:46.966Z,23.23
2022-10-10T12:12:19.226Z,23.04
2022-10-10T12:14:53.982Z,23.19
2022-10-10T12:17:24.789Z,23.30
2022-10-10T12:19:52.067Z,23.87
2022-10-10T12:22:37.345Z,23.41
2022-10-10T12:25:06.982Z,23.45
2022-10-10T12:28:03.202Z,23.15
2022-10-10T12:30:30.304Z,22.69
2022-10-10T12:32:57.545Z,22.77
2022-10-10T12:35:33.320Z,22.63
2022-10-10T12:38:05.979Z,22.43
2022-10-10T12:40:33.713Z,22.31
2022-10-10T12:43:21.286Z,22.41
2022-10-10T12:46:08.227Z,22.25
2022-10-10T12:48:35.607Z,22.31
2022-10-10T12:51:02.448Z,22.27
2022-10-10T12:53:33.046Z,22.26
2022-10-10T12:56:03.248Z,22.18
2022-10-10T12:58:34.014Z,22.01
2022-10-10T13:01:04.433Z,22.00
2022-10-10T13:03:46.764Z,22.14
2022-10-10T13:06:38.923Z,21.79
2022-10-10T13:09:11.657Z,21.71
2022-10-10T13:12:30.742Z,21.82
2022-10-10T13:14:57.618Z,21.87
2022-10-10T13:17:36.482Z,21.87
2022-10-10T13:20:05.750Z,21.49
2022-10-10T13:22:34.097Z,21.58
2022-10-10T13:25:01.070Z,21.34
2022-10-10T13:27:35.006Z,21.20
2022-10-10T13:30:02.222Z,21.11
2022-10-10T13:32:32.584Z,21.00
2022-10-10T13:35:02.125Z,21.04
2022-10-10T13:37:30.323Z,20.79
2022-10-10T13:39:57.253Z,20.73
2022-10-10T13:42:36.961Z,20.85
2022-10-10T13:45:29.474Z,20.79
2022-10-10T13:48:03.050Z,20.60
2022-10-10T13:50:32.592Z,20.41
2022-10-10T13:53:31.729Z,20.32
2022-10-10T13:56:28.047Z,20.42
2022-10-10T13:59:08.654Z,20.33
2022-10-10T14:01:47.482Z,20.21
2022-10-10T14:04:15.532Z,20.19
2022-10-10T14:07:01.892Z,20.14
2022-10-10T14:09:37.462Z,19.98
2022-10-10T14:12:06.930Z,20.00
2022-10-10T14:14:47.622Z,19.77
2022-10-10T14:17:15.188Z,19.63
2022-10-10T14:19:45.094Z,19.52
2022-10-10T14:22:11.770Z,19.36
2022-10-10T14:24:38.477Z,19.31
2022-10-10T14:27:13.506Z,19.35
2022-10-10T14:29:40.179Z,19.36
2022-10-10T14:32:06.692Z,19.36
2022-10-10T14:34:33.214Z,19.31
2022-10-10T14:36:59.712Z,19.27
2022-10-10T14:39:26.260Z,19.26
2022-10-10T14:41:52.791Z,19.12
2022-10-10T14:44:19.311Z,19.00
2022-10-10T14:46:45.844Z,18.79
2022-10-10T14:49:19.490Z,18.85
2022-10-10T14:51:47.444Z,18.72
2022-10-10T14:54:14.527Z,18.73
2022-10-10T14:57:07.879Z,18.65
2022-10-10T14:59:45.981Z,18.58
2022-10-10T15:02:15.466Z,18.56
2022-10-10T15:04:41.996Z,18.53
2022-10-10T15:07:14.919Z,18.45
2022-10-10T15:10:02.606Z,18.46
2022-10-10T15:12:30.311Z,18.38
2022-10-10T15:14:57.024Z,18.42
2022-10-10T15:17:25.528Z,18.36
2022-10-10T15:19:52.304Z,18.38
2022-10-10T15:22:19.330Z,18.35
2022-10-10T15:24:45.893Z,18.14
2022-10-10T15:27:12.704Z,18.11
2022-10-10T15:29:39.665Z,17.93
2022-10-10T15:32:06.277Z,18.00
2022-10-10T15:34:33.033Z,17.88
2022-10-10T15:36:59.578Z,17.75
2022-10-10T15:39:26.216Z,17.65
2022-10-10T15:41:52.723Z,17.63
2022-10-10T15:44:19.421Z,17.52
2022-10-10T15:46:46.358Z,17.56
2022-10-10T15:49:13.911Z,17.46
2022-10-10T15:51:45.945Z,17.33
2022-10-10T15:54:13.234Z,17.41
2022-10-10T15:56:40.177Z,17.29
2022-10-10T15:59:08.385Z,17.21
2022-10-10T16:01:35.744Z,17.18
2022-10-10T16:04:03.805Z,17.12
2022-10-10T16:06:30.386Z,17.14
2022-10-10T16:09:16.442Z,17.06
2022-10-10T16:11:43.420Z,17.03
2022-10-10T16:14:10.199Z,16.92
2022-10-10T16:16:36.787Z,16.89
2022-10-10T16:19:03.570Z,16.83
2022-10-10T16:21:30.559Z,16.71
2022-10-10T16:23:58.250Z,16.71
2022-10-10T16:26:29.227Z,16.58
2022-10-10T16:28:56.779Z,16.43
2022-10-10T16:31:23.327Z,16.42
2022-10-10T16:33:49.881Z,16.38
2022-10-10T16:36:28.390Z,16.25
2022-10-10T16:38:57.499Z,16.18
2022-10-10T16:41:46.394Z,16.19
2022-10-10T16:44:13.442Z,16.05
2022-10-10T16:46:39.923Z,16.03
2022-10-10T16:49:06.413Z,15.94
2022-10-10T16:51:32.989Z,15.94
2022-10-10T16:54:01.623Z,15.86
2022-10-10T16:56:28.897Z,15.90
2022-10-10T16:58:55.705Z,15.94
2022-10-10T17:01:23.492Z,15.97
2022-10-10T17:03:51.175Z,15.89
2022-10-10T17:06:21.182Z,15.87
2022-10-10T17:08:49.529Z,15.83
2022-10-10T17:11:17.936Z,15.82
2022-10-10T17:13:44.794Z,15.76
2022-10-10T17:16:53.612Z,15.83
2022-10-10T17:19:03.190Z,15.66
2022-10-10T17:21:29.920Z,15.68
2022-10-10T17:23:56.405Z,15.74
2022-10-10T17:26:23.344Z,15.60
2022-10-10T17:28:50.769Z,15.59
2022-10-10T17:31:17.803Z,15.61
2022-10-10T17:33:50.999Z,15.57
2022-10-10T17:36:23.125Z,15.55
2022-10-10T17:38:49.642Z,15.58
2022-10-10T17:41:17.573Z,15.50
2022-10-10T17:43:44.502Z,15.50
2022-10-10T17:46:33.899Z,15.39
2022-10-10T17:49:01.303Z,15.38
2022-10-10T17:51:27.955Z,15.26
2022-10-10T17:53:54.486Z,15.26
2022-10-10T17:56:22.643Z,15.19
2022-10-10T17:58:50.497Z,15.18
2022-10-10T18:01:19.384Z,15.10
2022-10-10T18:03:46.164Z,15.04
2022-10-10T18:06:15.802Z,15.12
2022-10-10T18:08:42.523Z,15.15
2022-10-10T18:11:14.134Z,15.14
2022-10-10T18:13:40.944Z,15.15
2022-10-10T18:16:13.492Z,15.13
2022-10-10T18:18:41.208Z,15.17
2022-10-10T18:21:09.452Z,15.06
2022-10-10T18:23:36.843Z,14.99
2022-10-10T18:26:11.120Z,14.90
2022-10-10T18:28:40.030Z,14.99
2022-10-10T18:31:13.551Z,14.96
2022-10-10T18:33:41.744Z,14.98
2022-10-10T18:36:09.465Z,14.89
2022-10-10T18:38:36.053Z,14.77
2022-10-10T18:41:07.678Z,14.82
2022-10-10T18:43:35.046Z,14.83
2022-10-10T18:46:02.677Z,14.89
2022-10-10T18:48:29.790Z,14.79
2022-10-10T18:51:01.780Z,14.76
2022-10-10T18:53:29.147Z,14.78
2022-10-10T18:55:58.157Z,14.89
2022-10-10T18:58:24.690Z,14.90
2022-10-10T19:00:51.212Z,14.90
2022-10-10T19:03:17.832Z,14.89
2022-10-10T19:05:44.303Z,14.85
2022-10-10T19:08:10.840Z,14.84
2022-10-10T19:10:44.952Z,14.80
2022-10-10T19:13:12.371Z,14.88
2022-10-10T19:15:39.128Z,14.80
2022-10-10T19:18:06.317Z,14.71
2022-10-10T19:20:33.023Z,14.64
2022-10-10T19:22:59.864Z,14.60
2022-10-10T19:25:29.881Z,14.71
2022-10-10T19:27:56.967Z,14.67
2022-10-10T19:30:23.738Z,14.57
2022-10-10T19:32:50.386Z,14.60
2022-10-10T19:35:16.969Z,14.53
2022-10-10T19:37:43.472Z,14.53
2022-10-10T19:40:10.510Z,14.57
2022-10-10T19:42:37.038Z,14.54
2022-10-10T19:45:03.949Z,14.67
2022-10-10T19:47:30.460Z,14.65
2022-10-10T19:49:57.012Z,14.69
2022-10-10T19:52:23.609Z,14.70
2022-10-10T19:54:50.118Z,14.78
2022-10-10T19:57:16.758Z,14.77
2022-10-10T19:59:43.367Z,14.89
2022-10-10T20:02:11.173Z,14.89
2022-10-10T20:04:37.745Z,14.88
2022-10-10T20:07:04.259Z,15.00
2022-10-10T20:09:30.767Z,15.05
2022-10-10T20:11:57.281Z,15.09
2022-10-10T20:14:24.094Z,15.10
2022-10-10T20:16:50.605Z,15.15
2022-10-10T20:19:17.256Z,15.22
2022-10-10T20:21:43.806Z,15.23
2022-10-10T20:24:10.399Z,15.17
2022-10-10T20:26:37.289Z,15.18
2022-10-10T20:29:04.359Z,15.28
2022-10-10T20:31:33.415Z,15.22
2022-10-10T20:34:01.640Z,15.20
2022-10-10T20:36:30.474Z,15.22
2022-10-10T20:39:04.733Z,15.18
2022-10-10T20:41:33.770Z,15.19
2022-10-10T20:44:03.248Z,15.13
2022-10-10T20:46:33.293Z,15.17
2022-10-10T20:49:01.451Z,15.13
2022-10-10T20:51:28.459Z,15.14
2022-10-10T20:53:58.515Z,15.10
2022-10-10T20:56:26.485Z,15.18
2022-10-10T20:58:54.084Z,15.23
2022-10-10T21:01:24.080Z,15.26
2022-10-10T21:03:50.645Z,15.23
2022-10-10T21:06:20.011Z,15.22
2022-10-10T21:08:46.647Z,15.14
2022-10-10T21:11:15.140Z,15.10
2022-10-10T21:13:43.975Z,15.09
2022-10-10T21:16:13.708Z,15.07
2022-10-10T21:18:43.014Z,15.10
2022-10-10T21:21:13.600Z,15.20
2022-10-10T21:23:45.424Z,15.24
2022-10-10T21:26:14.863Z,15.22
2022-10-10T21:28:41.756Z,15.18
2022-10-10T21:31:12.962Z,15.05
2022-10-10T21:33:39.445Z,15.04
2022-10-10T21:36:06.481Z,14.96
2022-10-10T21:38:33.380Z,14.88
2022-10-10T21:41:08.120Z,14.78
2022-10-10T21:43:37.396Z,14.73
2022-10-10T21:46:06.291Z,14.60
2022-10-10T21:48:33.804Z,14.57
2022-10-10T21:51:00.759Z,14.49
2022-10-10T21:53:27.894Z,14.45
2022-10-10T21:55:55.239Z,14.46
2022-10-10T21:58:23.357Z,14.46
2022-10-10T22:00:50.035Z,14.44
2022-10-10T22:03:16.614Z,14.45
2022-10-10T22:05:44.753Z,14.42
2022-10-10T22:08:11.579Z,14.46
2022-10-10T22:10:40.872Z,14.42
2022-10-10T22:13:07.817Z,14.43
2022-10-10T22:15:34.387Z,14.43
2022-10-10T22:18:00.862Z,14.36
2022-10-10T22:20:27.419Z,14.27
2022-10-10T22:22:53.936Z,14.15
2022-10-10T22:25:20.506Z,14.13
2022-10-10T22:27:46.990Z,14.13
2022-10-10T22:30:15.835Z,14.00
2022-10-10T22:32:42.302Z,13.87
2022-10-10T22:35:09.098Z,13.91
2022-10-10T22:37:37.352Z,13.71
2022-10-10T22:40:04.506Z,13.71
2022-10-10T22:42:31.038Z,13.70
2022-10-10T22:44:57.555Z,13.69
2022-10-10T22:47:24.095Z,13.70
2022-10-10T22:49:50.604Z,13.66
2022-10-10T22:52:17.210Z,13.67
2022-10-10T22:54:43.785Z,13.71
2022-10-10T22:57:11.014Z,13.62
2022-10-10T22:59:37.842Z,13.63
2022-10-10T23:02:04.380Z,13.57
2022-10-10T23:04:31.086Z,13.56
2022-10-10T23:06:57.606Z,13.46
2022-10-10T23:09:24.222Z,13.41
2022-10-10T23:11:50.735Z,13.34
2022-10-10T23:14:18.749Z,13.31
2022-10-10T23:16:45.400Z,13.29
2022-10-10T23:19:11.932Z,13.32
2022-10-10T23:21:38.485Z,13.31
2022-10-10T23:24:05.394Z,13.41
2022-10-10T23:26:31.980Z,13.27
2022-10-10T23:28:58.535Z,13.27
2022-10-10T23:31:25.117Z,13.31
2022-10-10T23:33:51.577Z,13.26
2022-10-10T23:36:18.078Z,13.30
2022-10-10T23:38:44.661Z,13.28
2022-10-10T23:41:11.816Z,13.26
2022-10-10T23:43:38.409Z,13.27
2022-10-10T23:46:05.215Z,13.27
2022-10-10T23:48:32.039Z,13.26
2022-10-10T23:50:58.632Z,13.30
2022-10-10T23:53:25.175Z,13.35
2022-10-10T23:55:51.771Z,13.30
2022-10-10T23:58:18.262Z,13.31
